Ana Sayfa
METAR-TAF:

METAR-TAF

Havaalanları :

Odessa-Schlemeyer Field

Odessa, Teksas, Amerika Birleşik Devletleri

Enlem: 31-55-17N, Boylam: 102-23-30W, yükseklik: 914 m

Güncel hava durumu gözlemi

Rapor saat 20:16 UTC de 15 dakika önce yapıldı.
Rüzgar kuzeydoğudan 13 kt
Sıcaklık 32°C
Nem 34%
Basınç 1020 hPa
Görüş mesafesi: 16.1 km
6000 ft yükseklikte az bulutlu
7500 ft yükseklikte parçalı bulutlu
10000 ft yükseklikte parçalı çok bulutlu
gök gürültülü fırtına

METAR: KODO 222016Z AUTO 04013KT 10SM TS FEW060 SCT075 BKN100 32/14 A3013 RMK AO2 LTG DSNT N AND SE AND NW TSB16 T03170139

Saat: 15:31 (20:31 UTC)


TAF: eksik

4.000'den fazla havaalanı için hava durumu gözlemleri ve tahminleri (METAR ve TAF raporları).

Kullanılabilir istasyonlar harita üzerinde sarı ve kırmızı noktalarla gösterilir.

İstasyonun adını görmek için fareyi noktanın üzerinde gezdirin.

Sonrasında hava gözlem ve tahminlerini görmek için tıklayın.

Haritayı değiştirmek için: yaklaştırmak için siyah artı işaretli yeşil düğmeye ve uzaklaştırmak için de eksi işaretli düğmeye hızla tıklayın; bitişik haritalar için yeşil okları kullanın.


METAR-TAF: